Time;durP1;ratioP1;P1;durP2;ratioP2;P2;SDS_P1;SDS_P2;PMS_P1;PMS_P2;Temp;Humidity;BMP_temperature;BMP_pressure;BME280_temperature;BME280_humidity;BME280_pressure;Samples;Min_cycle;Max_cycle;Signal;HPM_P1;HPM_P2
2022/11/25 00:01:21;;;;;;;5.13;4.10;;;;;;;8.18;58.62;99101.47;5029154;28;20030;-70
2022/11/25 00:03:48;;;;;;;4.20;3.80;;;;;;;8.15;59.18;99100.16;5031051;28;20025;-70
2022/11/25 00:06:27;;;;;;;3.75;3.33;;;;;;;8.05;59.04;99111.63;5031076;28;20116;-70
2022/11/25 00:08:55;;;;;;;6.40;3.53;;;;;;;8.04;59.04;99110.00;5031025;28;20489;-71
2022/11/25 00:11:21;;;;;;;3.58;3.28;;;;;;;8.04;58.79;99101.63;5030256;28;20057;-70
2022/11/25 00:13:47;;;;;;;3.42;2.92;;;;;;;8.12;58.35;99106.41;5013559;28;20030;-70
2022/11/25 00:16:16;;;;;;;3.63;2.70;;;;;;;8.18;58.43;99102.28;5031344;28;20025;-71
2022/11/25 00:18:50;;;;;;;6.50;3.78;;;;;;;8.14;58.47;99104.09;5013487;28;20564;-71
2022/11/25 00:21:19;;;;;;;4.35;2.95;;;;;;;8.13;58.64;99108.03;5031215;28;20025;-71
2022/11/25 00:23:50;;;;;;;3.50;3.20;;;;;;;8.08;59.06;99105.38;5031040;28;20029;-70
2022/11/25 00:26:15;;;;;;;2.92;2.65;;;;;;;8.10;57.63;99103.13;5012423;28;20029;-70
2022/11/25 00:28:45;;;;;;;3.60;3.28;;;;;;;8.18;56.95;99105.06;5028407;28;20022;-70
2022/11/25 00:31:22;;;;;;;2.88;2.42;;;;;;;8.20;56.17;99102.75;4994298;28;20026;-70
2022/11/25 00:33:49;;;;;;;6.40;3.13;;;;;;;8.18;56.68;99104.25;5030791;28;20084;-70
2022/11/25 00:36:17;;;;;;;2.92;2.72;;;;;;;8.17;56.66;99099.84;5030908;28;20460;-71
2022/11/25 00:38:43;;;;;;;4.80;2.40;;;;;;;8.15;55.55;99111.31;5012012;28;20511;-70
2022/11/25 00:46:48;;;;;;;3.47;3.17;;;;;;;8.25;55.21;99110.97;5024787;28;20060;-70
2022/11/25 00:49:14;;;;;;;2.55;2.30;;;;;;;8.26;55.07;99107.03;5030506;28;20025;-70
2022/11/25 00:51:39;;;;;;;3.85;2.30;;;;;;;8.19;54.58;99100.34;5030780;28;20033;-70
2022/11/25 00:54:05;;;;;;;4.25;2.67;;;;;;;8.20;54.80;99096.38;5029765;28;20036;-70
2022/11/25 00:56:31;;;;;;;4.95;2.58;;;;;;;8.24;55.29;99109.34;5012812;28;20029;-71
2022/11/25 00:58:56;;;;;;;2.83;2.22;;;;;;;8.26;54.34;99104.25;5030571;28;20034;-70
2022/11/25 01:01:22;;;;;;;4.25;2.30;;;;;;;8.29;54.14;99116.72;5030277;28;20025;-70
2022/11/25 01:03:49;;;;;;;5.38;3.03;;;;;;;8.27;54.58;99107.88;5030464;28;20025;-70
2022/11/25 01:06:14;;;;;;;3.53;2.30;;;;;;;8.29;54.92;99111.94;5029267;28;20022;-70
2022/11/25 01:08:40;;;;;;;3.70;2.53;;;;;;;8.38;55.01;99108.34;5012764;28;20480;-70
2022/11/25 01:11:09;;;;;;;2.67;2.20;;;;;;;8.36;54.74;99121.81;5030368;28;20080;-70
2022/11/25 01:13:35;;;;;;;2.40;2.20;;;;;;;8.24;55.08;99116.88;5025798;28;20091;-70
2022/11/25 01:16:05;;;;;;;5.72;2.53;;;;;;;8.22;55.63;99110.81;5022748;28;20526;-70
2022/11/25 01:18:31;;;;;;;3.33;2.88;;;;;;;8.12;55.71;99109.97;5029411;28;20029;-70
2022/11/25 01:21:06;;;;;;;2.72;2.53;;;;;;;8.17;55.80;99117.34;5030571;28;20530;-70
2022/11/25 01:23:31;;;;;;;3.92;2.78;;;;;;;8.18;56.09;99118.19;5030591;28;20069;-70
2022/11/25 01:26:00;;;;;;;6.88;2.83;;;;;;;8.16;55.82;99121.28;5030616;28;20112;-70
2022/11/25 01:28:26;;;;;;;3.47;2.78;;;;;;;8.12;56.13;99123.91;5028262;28;20057;-70
2022/11/25 01:31:18;;;;;;;3.25;2.95;;;;;;;8.16;56.33;99124.09;5012708;28;20042;-70
2022/11/25 01:33:45;;;;;;;3.38;3.05;;;;;;;8.13;55.89;99131.13;5027426;28;20025;-70
2022/11/25 01:36:13;;;;;;;3.40;3.10;;;;;;;8.15;56.48;99130.81;5028286;28;20029;-70
2022/11/25 01:38:39;;;;;;;5.82;2.60;;;;;;;8.05;56.52;99125.56;5021988;28;20037;-70
2022/11/25 01:41:07;;;;;;;3.92;3.58;;;;;;;8.07;56.48;99121.31;5034053;28;20037;-70
2022/11/25 01:43:33;;;;;;;3.95;3.25;;;;;;;8.04;56.54;99126.69;5033770;28;20459;-70
2022/11/25 01:46:49;;;;;;;3.83;3.40;;;;;;;8.14;57.37;99118.03;5033630;28;20157;-70
2022/11/25 01:49:26;;;;;;;3.70;3.40;;;;;;;8.05;57.42;99114.41;4932867;29;20081;-70
2022/11/25 01:52:01;;;;;;;4.65;3.40;;;;;;;8.00;57.60;99115.38;5030493;28;20112;-70
2022/11/25 01:54:32;;;;;;;4.15;3.75;;;;;;;7.94;57.79;99109.16;5033778;28;20052;-70
2022/11/25 01:57:07;;;;;;;5.37;4.27;;;;;;;7.98;56.67;99115.72;5015938;28;20120;-70
2022/11/25 01:59:37;;;;;;;5.43;4.35;;;;;;;8.06;56.85;99118.84;5015457;28;20468;-70
2022/11/25 02:02:03;;;;;;;4.68;3.78;;;;;;;7.99;57.32;99124.88;5015899;28;20053;-70
2022/11/25 02:04:33;;;;;;;8.38;5.57;;;;;;;8.09;56.82;99130.16;5033057;28;20072;-70
2022/11/25 02:07:02;;;;;;;;;;;;;;;8.05;56.95;99122.75;5013059;28;20029;-70
2022/11/25 02:09:29;;;;;;;4.82;3.47;;;;;;;8.07;56.67;99121.31;5032840;28;19913;-70
2022/11/25 02:11:56;;;;;;;4.90;4.38;;;;;;;8.13;56.46;99121.97;5033226;28;20488;-70
2022/11/25 02:14:22;;;;;;;9.00;4.40;;;;;;;8.03;56.37;99120.31;5033405;28;20041;-70
2022/11/25 02:16:47;;;;;;;4.63;4.10;;;;;;;8.00;57.12;99121.78;5033349;28;20028;-70
2022/11/25 02:19:59;;;;;;;5.30;3.78;;;;;;;8.08;56.52;99136.88;5033425;28;20025;-70
2022/11/25 02:22:47;;;;;;;4.90;3.85;;;;;;;8.12;55.95;99132.28;5029408;28;20028;-70
2022/11/25 02:25:16;;;;;;;4.10;3.70;;;;;;;8.16;55.72;99129.66;5002563;28;20033;-70
2022/11/25 02:27:45;;;;;;;4.03;3.63;;;;;;;8.17;55.29;99130.50;5034159;28;20116;-70
2022/11/25 02:30:10;;;;;;;6.57;3.60;;;;;;;8.14;56.43;99137.53;5053071;28;20025;-69
2022/11/25 02:32:42;;;;;;;4.25;3.30;;;;;;;8.14;55.81;99123.59;5053075;28;20381;-70
2022/11/25 02:35:26;;;;;;;4.20;3.40;;;;;;;8.14;56.02;99131.94;5025700;28;20025;-69
2022/11/25 02:37:55;;;;;;;4.32;3.92;;;;;;;8.11;55.66;99124.25;5030286;28;20074;-70
2022/11/25 02:40:22;;;;;;;4.83;3.60;;;;;;;8.09;56.30;99132.94;5028001;28;20060;-69
2022/11/25 02:42:49;;;;;;;4.13;3.63;;;;;;;8.00;56.27;99126.53;5030041;28;20040;-70
2022/11/25 02:45:20;;;;;;;6.60;3.58;;;;;;;8.06;56.35;99116.03;5032656;28;20026;-70
2022/11/25 02:47:46;;;;;;;4.75;4.25;;;;;;;8.07;56.56;99126.03;5031645;28;20108;-70
2022/11/25 02:50:12;;;;;;;5.55;4.03;;;;;;;8.00;56.40;99124.56;5014233;28;20480;-70
2022/11/25 02:52:38;;;;;;;8.20;4.00;;;;;;;8.03;56.61;99128.69;5032524;28;20030;-70
2022/11/25 02:55:04;;;;;;;6.00;4.18;;;;;;;8.07;57.00;99120.47;5014760;28;20424;-70
2022/11/25 02:57:29;;;;;;;5.93;4.18;;;;;;;8.03;56.26;99130.63;5032361;28;20031;-70
2022/11/25 02:59:55;;;;;;;6.50;4.30;;;;;;;8.00;56.38;99127.34;5032514;28;20091;-70
2022/11/25 03:02:20;;;;;;;6.43;4.45;;;;;;;8.09;55.90;99138.50;5031121;28;20032;-70
2022/11/25 03:04:46;;;;;;;4.15;3.70;;;;;;;8.03;56.22;99130.63;5032254;28;20408;-70
2022/11/25 03:07:11;;;;;;;5.03;3.70;;;;;;;7.99;56.16;99120.16;5032164;28;20508;-70
2022/11/25 03:09:37;;;;;;;4.97;4.47;;;;;;;8.03;55.60;99130.63;5006827;28;20031;-70
2022/11/25 03:12:20;;;;;;;4.82;4.32;;;;;;;7.95;56.80;99135.06;5032094;28;20021;-70
2022/11/25 03:14:46;;;;;;;5.30;4.10;;;;;;;7.94;56.78;99128.66;5014048;28;20017;-70
2022/11/25 03:17:12;;;;;;;8.18;5.07;;;;;;;7.93;56.57;99118.66;5031200;28;20476;-70
2022/11/25 03:19:37;;;;;;;6.75;4.22;;;;;;;7.97;55.71;99122.44;5032087;28;20096;-70
2022/11/25 03:22:03;;;;;;;5.65;4.35;;;;;;;7.93;56.16;99121.44;5032080;28;20305;-70
2022/11/25 03:24:28;;;;;;;5.20;3.97;;;;;;;7.97;56.45;99116.88;5014349;28;20013;-70
2022/11/25 03:26:54;;;;;;;4.00;3.60;;;;;;;7.87;56.51;99120.78;5032030;28;20029;-70
2022/11/25 03:29:19;;;;;;;7.97;4.32;;;;;;;7.84;57.30;99115.03;5030810;28;20048;-70
2022/11/25 03:31:45;;;;;;;8.57;4.97;;;;;;;7.86;56.88;99110.78;5013403;28;20028;-70
2022/11/25 03:34:11;;;;;;;5.70;4.93;;;;;;;7.87;56.96;99126.34;5014292;28;20015;-70
2022/11/25 03:36:36;;;;;;;6.47;4.95;;;;;;;7.81;57.25;99127.66;5014239;28;20480;-70
2022/11/25 03:39:02;;;;;;;8.90;6.95;;;;;;;7.78;57.67;99122.72;5031914;28;20049;-70
2022/11/25 03:41:28;;;;;;;9.60;6.03;;;;;;;7.79;57.81;99135.53;5014012;28;20041;-70
2022/11/25 03:43:53;;;;;;;7.97;6.45;;;;;;;7.67;58.43;99122.22;5030559;28;20024;-70
2022/11/25 03:46:19;;;;;;;13.10;6.43;;;;;;;7.64;58.40;99125.66;5031447;28;20116;-70
2022/11/25 03:48:44;;;;;;;7.53;5.10;;;;;;;7.64;58.54;99141.53;5031484;28;20025;-70
2022/11/25 03:51:10;;;;;;;5.90;5.03;;;;;;;7.70;57.95;99141.06;5031368;28;20527;-70
2022/11/25 03:53:35;;;;;;;6.55;5.10;;;;;;;7.67;57.70;99141.72;5030291;28;20543;-70
2022/11/25 03:56:00;;;;;;;5.90;5.07;;;;;;;7.69;57.75;99144.97;5031331;28;20485;-70
2022/11/25 03:58:26;;;;;;;5.32;3.95;;;;;;;7.72;57.68;99158.28;5012018;28;20029;-70
2022/11/25 04:00:51;;;;;;;5.55;4.43;;;;;;;7.65;57.42;99144.00;5030786;28;20025;-70
2022/11/25 04:03:17;;;;;;;7.82;4.53;;;;;;;7.69;58.19;99160.88;5031269;28;20099;-70
2022/11/25 04:05:42;;;;;;;5.60;4.50;;;;;;;7.74;58.42;99169.06;5030539;28;20065;-70
2022/11/25 04:08:08;;;;;;;7.18;4.75;;;;;;;7.75;58.23;99170.72;5030957;28;20029;-70
2022/11/25 04:10:33;;;;;;;5.55;4.68;;;;;;;7.61;59.07;99159.72;5030714;28;20021;-70
2022/11/25 04:12:59;;;;;;;5.53;4.70;;;;;;;7.64;58.37;99163.78;5030879;28;20067;-70
2022/11/25 04:15:24;;;;;;;9.52;5.30;;;;;;;7.64;58.03;99167.41;5031349;28;20026;-70
2022/11/25 04:17:50;;;;;;;5.13;4.63;;;;;;;7.66;57.35;99167.06;5030983;28;20169;-70
2022/11/25 04:20:15;;;;;;;5.13;4.53;;;;;;;7.80;57.57;99166.97;5030074;28;20037;-71
2022/11/25 04:22:41;;;;;;;6.47;3.50;;;;;;;7.76;57.32;99172.34;5013008;28;20056;-70
2022/11/25 04:25:08;;;;;;;5.63;4.20;;;;;;;7.80;56.68;99181.72;5013305;28;20029;-70
2022/11/25 04:27:33;;;;;;;8.77;5.22;;;;;;;7.75;57.41;99187.41;5030841;28;20022;-70
2022/11/25 04:29:59;;;;;;;4.53;4.13;;;;;;;7.70;57.87;99180.03;5031075;28;20025;-70
2022/11/25 04:32:25;;;;;;;4.68;4.25;;;;;;;7.64;58.10;99191.63;5030593;28;20032;-70
2022/11/25 04:34:51;;;;;;;5.45;4.18;;;;;;;7.74;58.47;99191.34;5029869;28;20033;-70
2022/11/25 04:37:16;;;;;;;7.25;5.32;;;;;;;7.80;58.34;99203.16;5030779;28;20030;-70
2022/11/25 04:39:42;;;;;;;9.60;6.32;;;;;;;7.79;58.00;99198.72;5012690;28;20109;-70
2022/11/25 04:44:51;;;;;;;14.90;9.00;;;;;;;7.91;58.19;99207.28;5021191;28;20045;-70
2022/11/25 04:47:17;;;;;;;11.70;7.60;;;;;;;7.81;57.90;99204.78;5009990;28;20053;-70
2022/11/25 04:49:42;;;;;;;8.02;6.07;;;;;;;7.78;57.58;99203.47;5031485;28;20029;-70
2022/11/25 04:52:08;;;;;;;8.25;5.72;;;;;;;7.76;58.11;99202.16;5030658;28;20045;-70
2022/11/25 04:54:33;;;;;;;4.97;4.45;;;;;;;7.70;58.27;99199.50;5030774;28;20473;-70
2022/11/25 04:56:58;;;;;;;4.47;4.07;;;;;;;7.72;57.93;99205.59;5013115;28;20029;-70
2022/11/25 04:59:39;;;;;;;4.00;3.47;;;;;;;7.72;57.47;99211.19;5030423;28;20044;-70
2022/11/25 05:02:05;;;;;;;;;;;;;;;7.82;57.44;99210.06;5011982;28;20041;-70
2022/11/25 05:04:30;;;;;;;5.90;3.53;;;;;;;7.79;56.91;99219.06;5030488;28;20432;-70
2022/11/25 05:06:56;;;;;;;6.47;3.10;;;;;;;7.77;56.81;99223.28;5030693;28;20111;-70
2022/11/25 05:09:22;;;;;;;5.72;3.30;;;;;;;7.76;57.16;99225.25;5028292;28;20025;-70
2022/11/25 05:11:48;;;;;;;6.32;4.60;;;;;;;7.73;57.04;99229.53;5031541;28;20079;-70
2022/11/25 05:14:13;;;;;;;8.98;5.63;;;;;;;7.83;56.33;99216.44;5033370;28;20330;-70
2022/11/25 05:16:39;;;;;;;9.40;6.22;;;;;;;7.92;55.74;99245.13;5044823;28;20033;-70
2022/11/25 05:19:04;;;;;;;5.60;3.67;;;;;;;7.89;56.53;99231.84;5054410;28;20411;-70
2022/11/25 05:21:31;;;;;;;4.50;3.53;;;;;;;7.84;56.63;99234.78;5025773;28;20040;-70
2022/11/25 05:23:57;;;;;;;4.63;3.78;;;;;;;7.84;56.29;99238.38;5034398;28;20035;-70
2022/11/25 05:26:22;;;;;;;3.92;3.03;;;;;;;7.81;56.96;99225.13;5034420;28;20021;-70
2022/11/25 05:28:47;;;;;;;4.95;4.10;;;;;;;7.85;56.44;99231.69;5032752;28;20033;-70
2022/11/25 05:31:13;;;;;;;5.97;4.03;;;;;;;7.92;56.64;99245.13;5038535;28;20029;-70
2022/11/25 05:33:38;;;;;;;7.60;4.20;;;;;;;7.83;57.44;99249.84;5054138;28;20025;-70
2022/11/25 05:36:04;;;;;;;5.70;3.65;;;;;;;7.82;57.27;99251.81;5033857;28;20032;-70
2022/11/25 05:38:30;;;;;;;4.43;3.15;;;;;;;7.83;56.96;99260.97;5034113;28;20053;-70
2022/11/25 05:41:04;;;;;;;8.05;4.45;;;;;;;7.89;57.55;99275.56;5016351;28;20033;-70
2022/11/25 05:43:30;;;;;;;6.93;4.05;;;;;;;7.83;57.59;99272.13;5026918;28;20068;-69
2022/11/25 05:45:55;;;;;;;7.25;3.65;;;;;;;7.85;57.20;99272.63;5033822;28;20520;-73
2022/11/25 05:48:21;;;;;;;5.15;3.50;;;;;;;7.77;57.89;99271.44;5032935;28;20107;-73
2022/11/25 05:50:46;;;;;;;4.40;3.63;;;;;;;7.89;56.97;99281.16;5033961;28;20029;-70
2022/11/25 05:53:13;;;;;;;6.28;3.72;;;;;;;7.93;57.45;99288.53;5015849;28;20034;-74
2022/11/25 05:55:38;;;;;;;4.03;3.10;;;;;;;7.88;57.10;99291.47;5015775;28;20045;-71
2022/11/25 05:58:05;;;;;;;10.93;3.65;;;;;;;7.86;57.60;99300.16;5033654;28;20068;-73
2022/11/25 06:00:31;;;;;;;5.40;3.85;;;;;;;7.87;57.26;99312.13;5015582;28;20022;-69
2022/11/25 06:02:56;;;;;;;5.68;3.78;;;;;;;7.88;57.57;99319.34;5028086;28;20038;-69
2022/11/25 06:05:22;;;;;;;4.95;3.70;;;;;;;7.86;58.07;99316.06;5008361;28;20038;-69
2022/11/25 06:07:48;;;;;;;10.57;4.43;;;;;;;7.86;57.45;99321.63;5033051;28;20030;-69
2022/11/25 06:10:14;;;;;;;8.23;3.97;;;;;;;7.92;56.98;99327.88;5016004;28;20021;-69
2022/11/25 06:12:39;;;;;;;3.45;2.88;;;;;;;7.93;56.79;99327.53;5018856;28;20029;-70
2022/11/25 06:15:05;;;;;;;4.53;3.15;;;;;;;7.99;57.38;99334.63;5014021;28;20040;-70
2022/11/25 06:17:31;;;;;;;12.82;4.10;;;;;;;7.98;56.72;99338.56;5009816;28;20033;-70
2022/11/25 06:19:56;;;;;;;8.35;3.53;;;;;;;8.04;56.45;99350.38;5013531;28;20025;-70
2022/11/25 06:22:22;;;;;;;6.35;3.50;;;;;;;8.07;56.96;99360.03;5020870;28;20080;-70
2022/11/25 06:24:47;;;;;;;8.38;4.88;;;;;;;8.00;56.82;99360.50;5032107;28;20022;-69
2022/11/25 06:27:12;;;;;;;4.55;3.63;;;;;;;8.01;57.83;99374.13;5033172;28;20032;-71
2022/11/25 06:29:38;;;;;;;7.20;4.28;;;;;;;8.05;56.86;99374.31;5031542;28;20057;-69
2022/11/25 06:32:04;;;;;;;13.13;5.32;;;;;;;8.08;56.58;99378.38;5033149;28;20021;-69
2022/11/25 06:34:29;;;;;;;12.30;6.30;;;;;;;8.11;56.46;99383.34;5032765;28;20034;-68
2022/11/25 06:36:55;;;;;;;9.43;5.88;;;;;;;8.05;56.34;99379.88;5014243;28;20520;-70
2022/11/25 06:39:20;;;;;;;9.35;6.65;;;;;;;8.22;56.11;99395.00;5012730;28;20025;-72
2022/11/25 06:41:46;;;;;;;6.10;4.72;;;;;;;8.12;56.38;99396.13;5030261;28;20401;-70
2022/11/25 06:44:12;;;;;;;7.93;4.82;;;;;;;8.14;56.46;99396.63;5010835;28;20041;-69
2022/11/25 06:46:38;;;;;;;5.45;3.70;;;;;;;8.07;56.32;99394.28;5008051;28;20057;-69
2022/11/25 06:49:04;;;;;;;8.63;5.43;;;;;;;8.07;56.65;99396.25;5011006;28;20037;-69
2022/11/25 06:51:29;;;;;;;7.72;4.78;;;;;;;8.09;56.33;99407.91;5004992;28;20577;-73
2022/11/25 06:53:58;;;;;;;15.90;8.80;;;;;;;8.20;56.74;99425.16;5028378;28;20029;-69
2022/11/25 06:56:26;;;;;;;8.07;5.68;;;;;;;8.09;57.10;99405.94;5025067;28;20033;-69
2022/11/25 06:58:53;;;;;;;8.40;5.45;;;;;;;8.13;56.69;99408.91;5004895;28;20411;-69
2022/11/25 07:01:24;;;;;;;12.98;6.32;;;;;;;8.20;57.21;99420.41;5027980;28;20029;-68
2022/11/25 07:03:52;;;;;;;10.77;5.80;;;;;;;8.22;56.66;99429.28;5010350;28;20025;-68
2022/11/25 07:06:19;;;;;;;8.85;5.97;;;;;;;8.23;57.03;99436.50;5014622;28;20416;-69
2022/11/25 07:08:45;;;;;;;20.05;6.65;;;;;;;8.21;56.97;99436.00;5003473;28;20037;-69
2022/11/25 07:11:15;;;;;;;10.00;4.50;;;;;;;8.18;56.94;99433.84;5009627;28;20456;-68
2022/11/25 07:13:40;;;;;;;5.28;3.80;;;;;;;8.15;56.89;99437.28;5003679;28;20037;-68
2022/11/25 07:16:06;;;;;;;19.75;9.68;;;;;;;8.15;56.69;99445.63;5029995;28;20428;-71
2022/11/25 07:18:35;;;;;;;11.57;7.45;;;;;;;8.18;57.12;99444.19;5027535;28;20056;-71
2022/11/25 07:21:07;;;;;;;10.13;5.57;;;;;;;8.23;56.50;99452.38;4994027;28;20412;-69
2022/11/25 07:23:33;;;;;;;19.10;7.57;;;;;;;8.19;56.98;99448.59;5021212;28;20057;-69
2022/11/25 07:26:08;;;;;;;7.82;5.47;;;;;;;8.16;56.89;99450.06;5023902;28;20415;-70
2022/11/25 07:28:35;;;;;;;10.90;6.40;;;;;;;8.13;57.49;99454.28;5027506;28;20048;-69
2022/11/25 07:31:09;;;;;;;6.63;5.03;;;;;;;8.18;57.05;99455.31;5011358;28;20033;-72
2022/11/25 07:33:35;;;;;;;8.23;4.80;;;;;;;8.23;56.94;99453.22;5009475;28;20110;-68
2022/11/25 07:36:03;;;;;;;7.25;5.03;;;;;;;8.22;56.60;99451.56;5015640;28;20056;-68
2022/11/25 07:38:28;;;;;;;10.80;6.05;;;;;;;8.26;56.76;99449.78;5029397;28;20399;-70
2022/11/25 07:40:53;;;;;;;26.45;11.05;;;;;;;8.25;56.33;99456.50;5029119;28;20036;-69
2022/11/25 07:43:19;;;;;;;31.30;12.48;;;;;;;8.29;56.51;99449.13;5007895;28;20183;-69
2022/11/25 07:45:44;;;;;;;8.93;5.47;;;;;;;8.33;55.41;99451.31;5028372;28;20057;-69
2022/11/25 07:48:10;;;;;;;10.85;6.97;;;;;;;8.30;56.01;99452.75;5028523;28;20040;-70
2022/11/25 07:50:35;;;;;;;5.40;4.55;;;;;;;8.45;55.31;99459.88;5029277;28;20067;-71
2022/11/25 07:53:01;;;;;;;9.30;4.88;;;;;;;8.50;56.13;99462.56;5011508;28;20027;-70
2022/11/25 07:55:26;;;;;;;6.28;4.10;;;;;;;8.55;54.80;99464.38;5010017;28;20420;-71
2022/11/25 07:57:52;;;;;;;11.13;6.47;;;;;;;8.65;54.85;99466.88;5028297;28;20037;-69
2022/11/25 08:00:17;;;;;;;10.82;6.43;;;;;;;8.68;54.69;99462.59;5017767;28;20460;-68
2022/11/25 08:02:43;;;;;;;8.32;4.97;;;;;;;8.74;54.63;99454.91;5013806;28;20485;-69
2022/11/25 08:05:08;;;;;;;15.23;6.18;;;;;;;8.88;53.61;99474.34;4996520;28;20345;-70
2022/11/25 08:07:34;;;;;;;104.53;45.83;;;;;;;8.98;54.54;99466.47;5002533;28;20120;-72
2022/11/25 08:09:59;;;;;;;21.13;9.88;;;;;;;9.08;53.59;99470.09;5026840;28;20104;-72
2022/11/25 08:12:25;;;;;;;160.27;109.85;;;;;;;9.25;52.29;99477.69;5028726;28;20263;-72
2022/11/25 08:14:50;;;;;;;512.50;297.13;;;;;;;9.26;53.09;99480.19;5002279;28;20500;-72
2022/11/25 08:17:16;;;;;;;353.70;167.95;;;;;;;9.38;52.76;99485.09;5010611;28;20461;-71
2022/11/25 08:19:41;;;;;;;1277.68;688.45;;;;;;;9.76;51.96;99472.47;5018699;28;20037;-72
2022/11/25 08:22:07;;;;;;;1220.80;616.28;;;;;;;10.08;50.75;99470.31;5011695;28;20034;-73
2022/11/25 08:24:32;;;;;;;471.45;246.57;;;;;;;10.12;50.30;99467.66;5024161;28;20037;-74
2022/11/25 08:27:00;;;;;;;358.52;176.80;;;;;;;10.07;50.45;99465.03;5003272;28;20084;-73
2022/11/25 08:29:25;;;;;;;33.10;17.35;;;;;;;10.01;51.12;99471.94;5024144;28;20083;-73
2022/11/25 08:31:51;;;;;;;28.38;12.73;;;;;;;10.19;49.83;99478.31;5028297;28;20108;-76
2022/11/25 08:34:22;;;;;;;243.15;108.68;;;;;;;10.07;48.91;99477.03;5016389;28;20034;-71
2022/11/25 08:36:48;;;;;;;412.67;227.60;;;;;;;9.94;47.99;99469.66;5028240;28;20029;-73
2022/11/25 08:39:13;;;;;;;472.02;223.45;;;;;;;10.04;47.96;99474.91;5027172;28;20037;-78
2022/11/25 08:41:39;;;;;;;15.02;7.10;;;;;;;10.10;46.86;99476.38;5012452;28;20120;-72
2022/11/25 08:44:07;;;;;;;14.20;6.18;;;;;;;9.99;47.70;99469.50;5029413;28;20032;-72
2022/11/25 08:46:36;;;;;;;295.83;140.63;;;;;;;10.02;47.73;99482.00;5030520;28;20132;-72
2022/11/25 08:49:03;;;;;;;11.32;5.13;;;;;;;10.17;47.32;99478.66;5016149;28;20025;-73
2022/11/25 08:51:34;;;;;;;36.50;10.27;;;;;;;10.23;47.08;99474.53;5022626;28;20033;-72
2022/11/25 08:54:00;;;;;;;20.17;7.60;;;;;;;10.23;47.52;99474.53;5033181;28;20034;-72
2022/11/25 08:56:27;;;;;;;108.80;51.97;;;;;;;10.18;46.40;99468.28;5016015;28;20037;-72
2022/11/25 08:58:53;;;;;;;10.25;5.63;;;;;;;10.34;45.11;99476.97;5034578;28;20033;-71
2022/11/25 09:01:19;;;;;;;7.78;5.10;;;;;;;10.36;45.54;99469.91;5031699;28;20026;-72
2022/11/25 09:03:48;;;;;;;8.77;3.28;;;;;;;10.45;44.71;99469.91;5021235;28;20021;-72
2022/11/25 09:06:14;;;;;;;6.53;3.53;;;;;;;10.58;44.41;99473.66;5034369;28;20033;-71
2022/11/25 09:08:40;;;;;;;6.82;4.47;;;;;;;10.86;44.37;99472.34;5031008;28;20104;-72
2022/11/25 09:11:07;;;;;;;22.38;9.57;;;;;;;10.75;43.89;99464.38;5003654;28;20131;-69
2022/11/25 09:13:33;;;;;;;8.48;5.30;;;;;;;10.70;43.81;99464.53;5022555;28;20041;-69
2022/11/25 09:16:00;;;;;;;12.10;4.70;;;;;;;10.62;43.86;99471.81;5013745;28;20507;-72
2022/11/25 09:18:25;;;;;;;13.55;5.68;;;;;;;10.60;44.53;99471.31;5030860;28;20029;-71
2022/11/25 09:20:52;;;;;;;9.60;4.35;;;;;;;10.63;44.12;99467.06;5027266;28;20496;-70
2022/11/25 09:23:19;;;;;;;6.05;3.97;;;;;;;10.74;44.16;99471.13;5016291;28;20121;-73
2022/11/25 09:25:55;;;;;;;6.97;4.35;;;;;;;10.76;43.48;99468.78;5023041;28;20575;-73
2022/11/25 09:28:22;;;;;;;7.28;4.95;;;;;;;10.77;43.38;99464.84;5020094;28;20127;-70
2022/11/25 09:30:48;;;;;;;8.35;4.38;;;;;;;10.78;42.62;99458.09;5019229;28;20018;-70
2022/11/25 09:33:13;;;;;;;10.70;6.28;;;;;;;10.86;42.88;99466.75;5015653;28;20533;-70
2022/11/25 09:35:39;;;;;;;11.73;5.32;;;;;;;11.08;42.25;99466.47;5014398;28;20017;-71
2022/11/25 09:38:05;;;;;;;10.20;3.28;;;;;;;11.12;42.66;99458.22;5029297;28;20025;-71
2022/11/25 09:40:52;;;;;;;14.95;2.80;;;;;;;11.18;42.20;99467.25;5006493;28;20088;-73
2022/11/25 09:46:51;;;;;;;6.78;3.42;;;;;;;11.56;41.48;99452.28;5016140;28;20061;-70
2022/11/25 09:49:47;;;;;;;7.80;3.60;;;;;;;11.50;41.49;99459.28;4961264;28;20042;-70
2022/11/25 09:52:30;;;;;;;7.20;4.63;;;;;;;11.54;40.52;99459.41;5002141;28;20041;-70
2022/11/25 09:55:03;;;;;;;5.03;4.07;;;;;;;11.46;41.02;99461.94;5011544;28;20149;-70
2022/11/25 09:57:45;;;;;;;6.93;3.40;;;;;;;11.59;41.69;99453.59;4998845;28;20037;-70
2022/11/25 10:00:15;;;;;;;6.07;4.00;;;;;;;11.75;40.71;99451.00;4995667;28;20025;-71
2022/11/25 10:03:12;;;;;;;6.00;3.60;;;;;;;11.42;40.21;99451.75;5006595;28;20515;-70
2022/11/25 10:05:49;;;;;;;4.82;2.85;;;;;;;11.42;39.75;99441.38;5005292;28;20107;-70
2022/11/25 10:08:21;;;;;;;5.32;2.78;;;;;;;11.40;38.99;99456.88;4987134;28;20025;-70
2022/11/25 10:10:53;;;;;;;6.38;2.45;;;;;;;11.42;39.64;99452.59;5002588;28;20065;-70
2022/11/25 10:13:28;;;;;;;3.45;2.50;;;;;;;11.29;39.67;99448.88;5006937;28;20040;-70
2022/11/25 10:15:59;;;;;;;4.95;3.22;;;;;;;11.26;40.44;99435.56;5004678;28;20019;-73
2022/11/25 10:18:30;;;;;;;19.40;6.82;;;;;;;11.20;41.34;99442.53;5005740;28;20100;-71
2022/11/25 10:20:56;;;;;;;6.18;2.65;;;;;;;11.19;40.62;99440.88;4986343;28;20034;-70
2022/11/25 10:23:23;;;;;;;7.43;2.70;;;;;;;11.37;39.99;99445.22;4988142;28;20064;-71
2022/11/25 10:25:54;;;;;;;19.13;7.95;;;;;;;11.80;40.00;99436.75;5008813;28;20104;-71
2022/11/25 10:28:29;;;;;;;42.10;19.98;;;;;;;11.97;39.75;99438.56;5000044;28;20034;-72
2022/11/25 10:31:10;;;;;;;14.30;4.45;;;;;;;12.19;39.42;99430.97;4987488;28;20386;-72
2022/11/25 10:33:43;;;;;;;10.88;3.30;;;;;;;12.39;38.77;99411.63;4984149;28;20045;-71
2022/11/25 10:36:22;;;;;;;10.27;3.05;;;;;;;12.32;38.94;99429.00;4986142;28;20139;-70
2022/11/25 10:39:13;;;;;;;3.88;2.67;;;;;;;12.26;38.93;99421.97;5012521;28;20030;-70
2022/11/25 10:42:03;;;;;;;3.15;2.45;;;;;;;12.37;38.27;99414.75;4988667;28;20113;-71
2022/11/25 10:44:39;;;;;;;5.45;2.70;;;;;;;12.29;37.91;99418.47;5010737;28;20088;-74
2022/11/25 10:47:20;;;;;;;4.13;3.17;;;;;;;12.42;38.15;99422.94;5011446;28;20153;-71
2022/11/25 10:50:02;;;;;;;11.98;5.40;;;;;;;12.49;38.49;99433.59;5021540;28;20025;-69
2022/11/25 10:52:33;;;;;;;3.60;3.22;;;;;;;12.46;38.22;99418.28;5022293;28;20033;-71
2022/11/25 10:55:20;;;;;;;4.88;3.10;;;;;;;12.61;38.43;99424.34;5019196;28;20035;-68
2022/11/25 10:57:46;;;;;;;7.00;2.97;;;;;;;12.42;37.69;99417.31;5020436;28;20033;-69
2022/11/25 11:00:27;;;;;;;3.70;2.40;;;;;;;12.59;38.09;99426.69;5017672;28;20029;-71
2022/11/25 11:02:54;;;;;;;5.30;2.90;;;;;;;12.49;38.21;99430.78;5012493;28;20028;-71
2022/11/25 11:05:30;;;;;;;4.90;3.45;;;;;;;12.60;38.86;99417.13;5013336;28;20041;-73
2022/11/25 11:08:16;;;;;;;5.32;3.42;;;;;;;12.60;38.13;99420.72;5032018;28;20108;-71
2022/11/25 11:10:41;;;;;;;4.00;2.42;;;;;;;12.60;38.36;99409.50;5026466;28;20021;-73
2022/11/25 11:13:24;;;;;;;7.60;3.00;;;;;;;12.73;38.56;99424.34;5032168;28;20032;-68
2022/11/25 11:15:51;;;;;;;10.75;4.07;;;;;;;12.77;38.08;99419.66;5028078;28;20025;-71
2022/11/25 11:18:23;;;;;;;20.38;6.18;;;;;;;12.89;38.08;99427.28;5027930;28;20033;-70
2022/11/25 11:20:52;;;;;;;16.23;6.85;;;;;;;12.73;37.42;99431.94;5027048;28;20032;-70
2022/11/25 11:23:17;;;;;;;4.22;2.75;;;;;;;12.63;37.64;99424.81;5020713;28;20638;-70
2022/11/25 11:26:00;;;;;;;5.30;3.35;;;;;;;12.74;38.47;99419.59;5018713;28;20033;-72
2022/11/25 11:28:26;;;;;;;3.90;3.10;;;;;;;12.80;37.52;99429.38;5014754;28;20076;-71
2022/11/25 11:30:58;;;;;;;5.43;3.72;;;;;;;12.83;37.46;99433.50;5021333;28;20798;-71
2022/11/25 11:33:41;;;;;;;3.75;3.25;;;;;;;13.04;37.80;99430.53;5019771;28;20033;-70
2022/11/25 11:36:26;;;;;;;3.58;2.20;;;;;;;13.03;37.33;99429.75;5019786;28;20021;-72
2022/11/25 11:39:20;;;;;;;2.53;1.80;;;;;;;12.84;37.31;99438.72;5026629;28;20072;-71
2022/11/25 11:41:57;;;;;;;3.63;2.70;;;;;;;12.98;37.28;99432.78;5017726;28;20109;-71
2022/11/25 11:44:39;;;;;;;3.20;2.40;;;;;;;12.86;36.95;99429.97;5021433;28;20033;-71
2022/11/25 11:47:27;;;;;;;5.00;3.85;;;;;;;12.91;37.71;99435.34;5022460;28;20413;-71
2022/11/25 11:50:23;;;;;;;8.43;4.28;;;;;;;12.82;36.87;99448.69;5022792;28;20033;-71
2022/11/25 11:53:11;;;;;;;4.93;2.42;;;;;;;12.74;37.55;99445.63;4939545;28;20596;-71
2022/11/25 11:55:43;;;;;;;6.28;2.80;;;;;;;12.80;37.12;99453.84;4985126;28;20459;-71
2022/11/25 11:58:29;;;;;;;8.63;2.60;;;;;;;12.86;38.06;99453.25;5025095;28;20033;-71